Time;durP1;ratioP1;P1;durP2;ratioP2;P2;SDS_P1;SDS_P2;PMS_P1;PMS_P2;Temp;Humidity;BMP_temperature;BMP_pressure;BME280_temperature;BME280_humidity;BME280_pressure;Samples;Min_cycle;Max_cycle;Signal;HPM_P1;HPM_P2
2024/02/17 00:01:00;;;;;;;21.77;21.07;;;21.60;62.90;;;;;;5043226;28;21000;-65
2024/02/17 00:03:27;;;;;;;21.20;20.40;;;21.50;62.80;;;;;;5044377;28;21018;-65
2024/02/17 00:05:54;;;;;;;21.53;20.80;;;21.50;62.80;;;;;;5046369;28;20835;-66
2024/02/17 00:08:21;;;;;;;22.40;21.60;;;21.50;62.80;;;;;;5045985;28;20896;-66
2024/02/17 00:10:47;;;;;;;21.83;21.13;;;21.50;62.80;;;;;;5043122;28;20478;-64
2024/02/17 00:13:14;;;;;;;22.40;21.50;;;21.50;62.80;;;;;;5042381;28;20972;-64
2024/02/17 00:15:43;;;;;;;21.30;20.60;;;21.50;62.70;;;;;;5045552;28;20479;-63
2024/02/17 00:18:10;;;;;;;22.90;22.10;;;21.50;62.70;;;;;;5045919;28;20445;-64
2024/02/17 00:20:37;;;;;;;23.30;22.47;;;21.50;62.70;;;;;;5043218;28;20828;-63
2024/02/17 00:23:05;;;;;;;22.40;21.70;;;21.50;62.70;;;;;;5042180;28;20487;-64
2024/02/17 00:25:32;;;;;;;23.10;22.30;;;21.50;62.70;;;;;;5044151;28;20468;-64
2024/02/17 00:27:59;;;;;;;24.43;23.43;;;21.50;62.70;;;;;;5045780;28;20973;-64
2024/02/17 00:30:26;;;;;;;21.87;21.17;;;21.50;62.70;;;;;;5045625;28;20523;-64
2024/02/17 00:32:54;;;;;;;21.80;21.00;;;21.50;62.70;;;;;;5045670;28;20436;-64
2024/02/17 00:35:21;;;;;;;23.10;22.30;;;21.50;62.70;;;;;;5045035;28;20511;-64
2024/02/17 00:37:48;;;;;;;23.50;22.70;;;21.50;62.70;;;;;;5042225;28;20469;-64
2024/02/17 00:40:15;;;;;;;23.50;22.70;;;21.50;62.70;;;;;;5042390;28;20465;-66
2024/02/17 00:42:42;;;;;;;22.47;21.77;;;21.40;62.50;;;;;;5045484;28;20472;-65
2024/02/17 00:45:09;;;;;;;22.03;21.30;;;21.50;62.70;;;;;;5045652;28;20488;-66
2024/02/17 00:47:36;;;;;;;23.00;22.20;;;21.40;62.50;;;;;;5042971;28;20492;-65
2024/02/17 00:50:06;;;;;;;22.37;21.57;;;21.40;62.50;;;;;;5041787;28;20468;-65
2024/02/17 00:52:33;;;;;;;21.70;20.93;;;21.50;62.60;;;;;;5043601;28;20520;-64
2024/02/17 00:55:00;;;;;;;22.90;22.10;;;21.40;63.30;;;;;;5045303;28;20495;-64
2024/02/17 00:57:26;;;;;;;22.60;21.90;;;21.50;62.60;;;;;;5044067;28;20508;-65
2024/02/17 00:59:53;;;;;;;22.40;21.70;;;21.40;62.50;;;;;;5041790;28;20477;-65
2024/02/17 01:02:20;;;;;;;22.53;21.73;;;21.40;62.50;;;;;;5041537;28;20483;-63
2024/02/17 01:04:47;;;;;;;23.10;22.30;;;21.50;62.60;;;;;;5044918;28;20839;-64
2024/02/17 01:07:15;;;;;;;24.67;23.77;;;21.50;62.50;;;;;;5044215;28;20440;-64
2024/02/17 01:09:42;;;;;;;24.07;23.27;;;21.40;62.40;;;;;;5041830;28;20937;-64
2024/02/17 01:12:09;;;;;;;22.03;21.33;;;21.40;62.40;;;;;;5041523;28;20441;-66
2024/02/17 01:14:36;;;;;;;22.97;22.23;;;21.40;62.50;;;;;;5043640;28;21038;-65
2024/02/17 01:17:03;;;;;;;23.07;22.27;;;21.40;62.40;;;;;;5045204;28;20538;-65
2024/02/17 01:19:30;;;;;;;22.80;22.00;;;21.40;62.40;;;;;;5043472;28;20498;-66
2024/02/17 01:21:57;;;;;;;23.90;23.03;;;21.40;62.40;;;;;;5041552;28;20441;-66
2024/02/17 01:24:25;;;;;;;24.90;24.00;;;21.40;62.40;;;;;;5041841;28;20465;-66
2024/02/17 01:26:53;;;;;;;25.10;24.20;;;21.40;62.40;;;;;;5045251;28;20948;-66
2024/02/17 01:29:20;;;;;;;22.70;22.00;;;21.40;62.40;;;;;;5044810;28;20468;-65
2024/02/17 01:31:47;;;;;;;22.97;22.17;;;21.40;62.40;;;;;;5033567;28;20533;-65
2024/02/17 01:34:14;;;;;;;22.90;22.10;;;21.40;62.40;;;;;;5041356;28;20810;-66
2024/02/17 01:36:40;;;;;;;23.67;22.87;;;21.40;62.30;;;;;;5043934;28;20508;-66
2024/02/17 01:39:08;;;;;;;23.70;22.90;;;21.40;62.40;;;;;;5044749;28;20471;-65
2024/02/17 01:41:36;;;;;;;22.63;21.87;;;21.40;62.40;;;;;;5042967;28;20825;-66
2024/02/17 01:44:06;;;;;;;22.87;22.07;;;21.40;62.40;;;;;;5041099;28;20498;-65
2024/02/17 01:46:32;;;;;;;23.23;22.43;;;21.40;62.30;;;;;;5042619;28;20966;-65
2024/02/17 01:48:59;;;;;;;22.93;22.13;;;21.40;62.30;;;;;;5044756;28;20475;-66
2024/02/17 01:51:27;;;;;;;22.70;22.00;;;21.40;62.30;;;;;;5043831;28;20468;-65
2024/02/17 01:53:56;;;;;;;23.63;22.83;;;21.40;62.30;;;;;;5040959;28;20495;-65
2024/02/17 01:56:25;;;;;;;23.30;22.50;;;21.40;62.20;;;;;;5041456;28;21700;-66
2024/02/17 01:58:54;;;;;;;22.17;21.47;;;21.40;62.20;;;;;;5044951;28;20469;-60
2024/02/17 02:01:22;;;;;;;23.03;22.20;;;21.40;63.00;;;;;;5044147;28;20475;-68
2024/02/17 02:03:49;;;;;;;22.47;21.60;;;21.30;63.70;;;;;;5032916;28;20874;-65
2024/02/17 02:06:20;;;;;;;21.90;21.20;;;21.40;64.30;;;;;;5040902;28;20468;-62
2024/02/17 02:08:48;;;;;;;23.40;22.50;;;21.40;64.20;;;;;;5048783;28;20440;-61
2024/02/17 02:11:15;;;;;;;23.30;22.50;;;21.40;64.30;;;;;;5040483;28;20476;-61
2024/02/17 02:13:42;;;;;;;23.23;22.20;;;21.40;64.20;;;;;;5042864;28;20461;-64
2024/02/17 02:16:11;;;;;;;23.07;22.17;;;21.40;64.20;;;;;;5044049;28;20487;-67
2024/02/17 02:18:38;;;;;;;22.53;21.60;;;21.50;64.40;;;;;;5041743;28;20528;-66
2024/02/17 02:21:05;;;;;;;24.07;23.20;;;21.50;64.30;;;;;;5040294;28;20506;-66
2024/02/17 02:23:32;;;;;;;23.40;22.50;;;21.50;64.20;;;;;;5041214;28;20457;-65
2024/02/17 02:26:00;;;;;;;23.00;22.20;;;21.50;64.10;;;;;;5044052;28;20486;-65
2024/02/17 02:28:28;;;;;;;24.67;23.73;;;21.50;64.20;;;;;;5046841;28;20436;-66
2024/02/17 02:30:57;;;;;;;22.97;22.17;;;21.60;64.30;;;;;;5040246;28;20499;-65
2024/02/17 02:33:24;;;;;;;22.87;22.07;;;21.60;64.30;;;;;;5039976;28;20465;-66
2024/02/17 02:35:51;;;;;;;23.73;22.93;;;21.60;64.30;;;;;;5043767;28;20581;-65
2024/02/17 02:38:18;;;;;;;23.20;22.40;;;21.60;64.10;;;;;;5043592;28;20432;-64
2024/02/17 02:40:45;;;;;;;23.40;22.60;;;21.60;64.10;;;;;;5040412;28;20484;-64
2024/02/17 02:43:13;;;;;;;23.77;22.67;;;21.70;64.20;;;;;;5039910;28;20863;-65
2024/02/17 02:45:40;;;;;;;23.50;22.60;;;21.70;64.10;;;;;;5042335;28;20936;-64
2024/02/17 02:48:08;;;;;;;23.50;22.50;;;21.70;64.10;;;;;;5042956;28;20493;-66
2024/02/17 02:50:35;;;;;;;23.17;22.37;;;21.70;64.00;;;;;;5043204;28;20848;-65
2024/02/17 02:53:02;;;;;;;23.37;22.57;;;21.80;64.10;;;;;;5043252;28;20939;-65
2024/02/17 02:55:29;;;;;;;23.20;22.40;;;21.80;64.00;;;;;;5042676;28;20436;-65
2024/02/17 02:57:56;;;;;;;23.47;22.67;;;21.80;63.90;;;;;;5042863;28;20484;-65
2024/02/17 03:00:24;;;;;;;23.10;22.20;;;21.80;63.90;;;;;;5036078;28;20496;-62
2024/02/17 03:02:52;;;;;;;23.77;22.87;;;21.80;63.80;;;;;;5031928;28;20503;-62
2024/02/17 03:05:19;;;;;;;24.20;23.20;;;21.80;63.70;;;;;;5039938;28;20441;-63
2024/02/17 03:07:45;;;;;;;23.70;22.90;;;21.80;63.60;;;;;;5042499;28;20464;-64
2024/02/17 03:10:12;;;;;;;24.07;23.07;;;21.90;63.80;;;;;;5043050;28;20444;-64
2024/02/17 03:12:39;;;;;;;24.07;23.17;;;21.90;63.70;;;;;;5041187;28;20501;-63
2024/02/17 03:15:07;;;;;;;24.00;23.10;;;21.90;63.60;;;;;;5039663;28;20457;-62
2024/02/17 03:17:36;;;;;;;23.33;22.43;;;21.90;63.40;;;;;;5038463;28;20547;-62
2024/02/17 03:20:04;;;;;;;23.87;22.97;;;21.90;63.40;;;;;;5042920;28;20468;-63
2024/02/17 03:22:31;;;;;;;23.93;23.13;;;21.90;63.30;;;;;;5042200;28;20451;-63
2024/02/17 03:24:58;;;;;;;25.00;24.10;;;22.00;63.30;;;;;;5039696;28;20461;-63
2024/02/17 03:27:25;;;;;;;26.87;25.67;;;22.00;63.20;;;;;;5039546;28;20924;-62
2024/02/17 03:29:52;;;;;;;26.60;25.50;;;22.00;62.80;;;;;;5032492;28;20532;-63
2024/02/17 03:32:19;;;;;;;25.20;24.20;;;21.90;62.70;;;;;;5043542;28;20465;-63
2024/02/17 03:34:47;;;;;;;24.03;23.13;;;21.90;62.80;;;;;;5045261;28;20469;-63
2024/02/17 03:37:14;;;;;;;24.10;23.10;;;21.90;62.70;;;;;;5046821;28;20476;-63
2024/02/17 03:39:41;;;;;;;24.60;23.70;;;21.90;62.70;;;;;;5045230;28;20484;-63
2024/02/17 03:42:08;;;;;;;24.53;23.53;;;21.90;62.70;;;;;;5046787;28;20476;-63
2024/02/17 03:44:35;;;;;;;24.70;23.70;;;21.80;62.60;;;;;;5045140;28;20475;-63
2024/02/17 03:47:02;;;;;;;24.17;23.27;;;21.80;62.60;;;;;;5043756;28;21009;-63
2024/02/17 03:49:29;;;;;;;24.23;23.30;;;21.80;62.60;;;;;;5043442;28;20587;-64
2024/02/17 03:51:57;;;;;;;24.60;23.70;;;21.80;62.60;;;;;;5046811;28;20479;-63
2024/02/17 03:54:24;;;;;;;24.10;23.20;;;21.80;62.60;;;;;;5046435;28;20983;-63
2024/02/17 03:56:51;;;;;;;24.60;23.70;;;21.80;62.60;;;;;;5050845;28;20523;-64
2024/02/17 03:59:18;;;;;;;24.20;23.30;;;21.80;62.60;;;;;;5043079;28;20445;-63
2024/02/17 04:01:45;;;;;;;25.20;24.30;;;21.80;62.60;;;;;;5045449;28;20507;-64
2024/02/17 04:04:12;;;;;;;22.80;21.90;;;21.70;62.60;;;;;;5046175;28;20499;-63
2024/02/17 04:06:39;;;;;;;22.60;21.70;;;21.70;62.60;;;;;;5044899;28;20955;-64
2024/02/17 04:09:07;;;;;;;23.00;22.10;;;21.70;62.60;;;;;;5043018;28;20804;-63
2024/02/17 04:11:34;;;;;;;22.90;22.00;;;21.70;62.60;;;;;;5043860;28;20448;-63
2024/02/17 04:14:01;;;;;;;23.30;22.40;;;21.70;62.60;;;;;;5046099;28;20487;-64
2024/02/17 04:16:28;;;;;;;23.10;22.30;;;21.70;62.60;;;;;;5046135;28;20523;-64
2024/02/17 04:18:55;;;;;;;23.70;22.80;;;21.60;62.60;;;;;;5042655;28;20441;-63
2024/02/17 04:21:22;;;;;;;23.10;22.20;;;21.60;62.60;;;;;;5042872;28;20816;-63
2024/02/17 04:23:49;;;;;;;23.20;22.30;;;21.60;62.60;;;;;;5045321;28;20452;-63
2024/02/17 04:26:17;;;;;;;23.20;22.30;;;21.60;62.60;;;;;;5047659;28;20444;-64
2024/02/17 04:28:45;;;;;;;23.20;22.20;;;21.60;62.60;;;;;;5045800;28;20992;-64
2024/02/17 04:31:12;;;;;;;23.33;22.43;;;21.60;62.60;;;;;;5044659;28;20445;-64
2024/02/17 04:33:39;;;;;;;23.80;22.80;;;21.60;62.60;;;;;;5062165;22;20492;-64
2024/02/17 04:36:07;;;;;;;23.97;23.07;;;21.60;62.70;;;;;;5062271;28;20428;-63
2024/02/17 04:38:35;;;;;;;23.77;22.87;;;21.60;62.70;;;;;;5053877;28;20522;-63
2024/02/17 04:41:02;;;;;;;23.27;22.37;;;21.50;62.60;;;;;;5053102;28;21055;-63
2024/02/17 04:43:31;;;;;;;23.50;22.60;;;21.50;63.40;;;;;;5053349;28;20523;-64
2024/02/17 04:45:58;;;;;;;22.97;22.17;;;21.50;62.70;;;;;;5050002;28;20445;-64
2024/02/17 04:48:25;;;;;;;23.33;22.53;;;21.50;62.80;;;;;;5049769;28;20840;-62
2024/02/17 04:50:52;;;;;;;23.33;22.33;;;21.50;62.80;;;;;;5053649;28;20450;-64
2024/02/17 04:53:19;;;;;;;23.20;22.20;;;21.50;62.80;;;;;;5057309;28;20443;-63
2024/02/17 04:55:46;;;;;;;24.20;23.10;;;21.50;62.80;;;;;;5052593;28;20441;-63
2024/02/17 04:58:17;;;;;;;23.90;23.00;;;21.50;62.80;;;;;;5047784;28;20508;-63
2024/02/17 05:00:46;;;;;;;24.90;23.83;;;21.50;62.80;;;;;;5053450;28;20441;-61
2024/02/17 05:03:14;;;;;;;23.63;22.73;;;21.40;62.70;;;;;;5053355;28;20859;-63
2024/02/17 05:05:42;;;;;;;25.10;24.10;;;21.40;62.70;;;;;;5057958;28;20535;-62
2024/02/17 05:08:08;;;;;;;24.20;23.20;;;21.50;62.80;;;;;;5053414;28;20436;-63
2024/02/17 05:10:35;;;;;;;24.37;23.27;;;21.40;62.70;;;;;;5053213;28;20475;-63
2024/02/17 05:13:03;;;;;;;25.03;24.03;;;21.50;62.90;;;;;;5053199;28;20444;-63
2024/02/17 05:15:30;;;;;;;24.97;24.07;;;21.50;62.90;;;;;;5053482;28;20460;-62
2024/02/17 05:17:58;;;;;;;25.67;24.77;;;21.50;62.90;;;;;;5045294;28;20480;-63
2024/02/17 05:20:26;;;;;;;24.37;23.40;;;21.50;62.90;;;;;;5053216;28;20480;-63
2024/02/17 05:22:52;;;;;;;24.80;23.80;;;21.40;62.80;;;;;;5053041;28;20436;-63
2024/02/17 05:25:19;;;;;;;24.70;23.50;;;21.40;62.90;;;;;;5053145;28;20496;-63
2024/02/17 05:27:46;;;;;;;24.97;23.97;;;21.40;62.90;;;;;;5045064;28;20475;-63
2024/02/17 05:30:15;;;;;;;24.00;23.10;;;21.40;63.00;;;;;;5052921;28;20479;-62
2024/02/17 05:32:42;;;;;;;24.10;23.20;;;21.40;63.00;;;;;;5052718;28;20436;-62
2024/02/17 05:35:10;;;;;;;23.43;22.53;;;21.40;63.00;;;;;;5053627;28;20487;-64
2024/02/17 05:37:37;;;;;;;23.00;22.10;;;21.40;63.00;;;;;;5055328;28;20507;-63
2024/02/17 05:40:06;;;;;;;23.53;22.63;;;21.40;63.00;;;;;;5052728;28;20468;-62
2024/02/17 05:42:34;;;;;;;24.13;23.23;;;21.30;63.00;;;;;;5052549;28;20444;-63
2024/02/17 05:45:01;;;;;;;23.83;22.93;;;21.30;63.00;;;;;;5052568;28;20466;-63
2024/02/17 05:47:28;;;;;;;24.00;23.10;;;21.40;63.20;;;;;;5056408;28;20436;-63
2024/02/17 05:49:55;;;;;;;24.90;23.80;;;21.30;63.10;;;;;;5052477;28;20441;-62
2024/02/17 05:52:23;;;;;;;23.13;22.23;;;21.30;63.10;;;;;;5052262;28;20951;-63
2024/02/17 05:54:50;;;;;;;24.70;23.70;;;21.30;63.10;;;;;;5052620;28;20500;-61
2024/02/17 05:57:17;;;;;;;24.67;23.67;;;21.30;63.20;;;;;;5044193;28;20551;-63
2024/02/17 05:59:44;;;;;;;23.83;22.83;;;21.30;63.20;;;;;;5052358;28;20497;-63
2024/02/17 06:02:11;;;;;;;23.97;23.07;;;21.30;63.20;;;;;;5052294;28;20444;-63
2024/02/17 06:04:38;;;;;;;23.83;22.73;;;21.30;63.20;;;;;;5055413;28;20547;-62
2024/02/17 06:07:05;;;;;;;23.60;22.60;;;21.30;63.30;;;;;;5052393;28;20483;-62
2024/02/17 06:09:33;;;;;;;24.23;23.23;;;21.30;63.40;;;;;;5052166;28;20444;-63
2024/02/17 06:12:01;;;;;;;24.20;23.10;;;21.30;63.40;;;;;;5044311;28;20468;-62
2024/02/17 06:14:27;;;;;;;23.90;23.00;;;21.30;63.40;;;;;;5044795;28;20523;-63
2024/02/17 06:16:55;;;;;;;23.83;22.83;;;21.30;63.40;;;;;;5051538;28;20471;-63
2024/02/17 06:22:06;;;;;;;23.70;22.70;;;21.30;63.30;;;;;;5044986;28;20427;-63
2024/02/17 06:24:34;;;;;;;23.87;22.87;;;21.30;63.40;;;;;;5043950;28;21243;-62
2024/02/17 06:27:01;;;;;;;24.20;23.10;;;21.20;63.30;;;;;;5044083;28;20472;-63
2024/02/17 06:29:28;;;;;;;24.10;23.20;;;21.20;63.30;;;;;;5051868;28;20857;-63
2024/02/17 06:31:55;;;;;;;24.50;23.50;;;21.20;63.40;;;;;;5051688;28;20778;-63
2024/02/17 06:34:22;;;;;;;24.00;22.80;;;21.30;63.50;;;;;;5053467;28;20492;-63
2024/02/17 06:36:48;;;;;;;25.17;24.17;;;21.30;63.50;;;;;;5051741;28;20472;-62
2024/02/17 06:39:15;;;;;;;23.50;22.60;;;21.20;63.40;;;;;;5051699;28;20503;-63
2024/02/17 06:41:44;;;;;;;24.27;23.27;;;21.20;64.20;;;;;;5051721;28;20835;-63
2024/02/17 06:44:10;;;;;;;23.80;22.90;;;21.20;63.50;;;;;;5046784;28;20489;-63
2024/02/17 06:46:38;;;;;;;23.27;22.37;;;21.20;63.50;;;;;;5048617;28;20843;-62
2024/02/17 06:49:05;;;;;;;23.40;22.50;;;21.20;63.50;;;;;;5051616;28;20439;-61
2024/02/17 06:51:36;;;;;;;24.20;23.23;;;21.20;63.50;;;;;;5051543;28;20447;-63
2024/02/17 06:54:03;;;;;;;23.70;22.80;;;21.20;63.50;;;;;;5040622;28;20464;-62
2024/02/17 06:56:30;;;;;;;22.70;21.83;;;21.20;63.60;;;;;;5047641;28;20464;-63
2024/02/17 06:58:59;;;;;;;23.40;22.50;;;21.20;63.60;;;;;;5051280;28;20563;-63
2024/02/17 07:01:25;;;;;;;24.10;23.20;;;21.20;63.70;;;;;;5051513;28;20479;-62
2024/02/17 07:03:52;;;;;;;25.00;24.00;;;21.20;63.70;;;;;;5048657;28;20502;-63
2024/02/17 07:06:20;;;;;;;25.10;24.10;;;21.20;63.70;;;;;;5045486;28;20446;-62
2024/02/17 07:08:48;;;;;;;25.40;24.40;;;21.20;63.70;;;;;;5051191;28;20499;-63
2024/02/17 07:11:15;;;;;;;24.13;23.23;;;21.20;63.70;;;;;;5052939;28;20444;-63
2024/02/17 07:13:43;;;;;;;24.60;23.60;;;21.20;63.70;;;;;;5053548;28;20495;-63
2024/02/17 07:16:12;;;;;;;23.93;23.03;;;21.20;63.70;;;;;;5051308;28;20468;-62
2024/02/17 07:18:39;;;;;;;24.30;23.30;;;21.20;63.70;;;;;;5051013;28;20484;-63
2024/02/17 07:21:06;;;;;;;24.63;23.63;;;21.10;63.60;;;;;;5051446;28;20448;-63
2024/02/17 07:23:33;;;;;;;25.17;24.17;;;21.10;63.60;;;;;;5056978;28;20439;-62
2024/02/17 07:26:01;;;;;;;25.67;24.67;;;21.20;63.80;;;;;;5051089;28;20472;-63
2024/02/17 07:28:27;;;;;;;26.87;25.80;;;21.20;63.70;;;;;;5051193;28;20490;-63
2024/02/17 07:30:55;;;;;;;25.40;24.40;;;21.20;63.70;;;;;;5051309;28;20464;-62
2024/02/17 07:33:23;;;;;;;25.00;24.00;;;21.20;63.70;;;;;;5043064;28;20800;-63
2024/02/17 07:35:50;;;;;;;25.87;24.87;;;21.20;63.70;;;;;;5051016;28;20472;-62
2024/02/17 07:38:18;;;;;;;24.80;23.80;;;21.20;63.60;;;;;;5050953;28;20559;-63
2024/02/17 07:40:45;;;;;;;26.40;25.30;;;21.10;63.50;;;;;;5051018;28;20448;-63
2024/02/17 07:43:12;;;;;;;24.90;23.90;;;21.20;63.50;;;;;;5054615;28;21051;-62
2024/02/17 07:45:39;;;;;;;23.87;22.97;;;21.20;63.50;;;;;;5050810;28;20472;-62
2024/02/17 07:48:06;;;;;;;24.20;23.10;;;21.20;63.50;;;;;;5051003;28;20433;-62
2024/02/17 07:50:34;;;;;;;23.60;22.70;;;21.10;63.30;;;;;;5051011;28;20498;-63
2024/02/17 07:53:01;;;;;;;24.07;23.07;;;21.20;63.40;;;;;;5042916;28;20872;-62
2024/02/17 07:55:28;;;;;;;24.30;23.30;;;21.10;63.30;;;;;;5050716;28;20488;-62
2024/02/17 07:57:55;;;;;;;24.10;23.20;;;21.20;63.40;;;;;;5050667;28;20483;-62
2024/02/17 08:00:23;;;;;;;24.17;23.17;;;21.20;63.40;;;;;;5051041;28;20445;-63
2024/02/17 08:02:51;;;;;;;24.40;23.40;;;21.10;63.30;;;;;;5053951;28;20436;-63
2024/02/17 08:05:19;;;;;;;24.00;23.00;;;21.20;63.40;;;;;;5050701;28;20468;-63
2024/02/17 08:07:47;;;;;;;23.80;22.80;;;21.20;63.30;;;;;;5050749;28;20796;-63
2024/02/17 08:10:14;;;;;;;23.90;23.00;;;21.20;63.30;;;;;;5050965;28;20450;-63
2024/02/17 08:12:42;;;;;;;25.43;24.43;;;21.20;63.30;;;;;;5059004;28;20452;-63
2024/02/17 08:15:09;;;;;;;24.93;24.00;;;21.20;63.20;;;;;;5054740;28;20456;-63
2024/02/17 08:17:36;;;;;;;24.90;24.00;;;21.20;63.20;;;;;;5054303;28;21014;-63
2024/02/17 08:20:05;;;;;;;25.53;24.53;;;21.10;63.10;;;;;;5054506;28;20440;-63
2024/02/17 08:22:31;;;;;;;23.70;22.70;;;21.20;63.10;;;;;;5055327;28;20432;-64
2024/02/17 08:25:00;;;;;;;24.37;23.43;;;21.20;63.20;;;;;;5045774;28;20460;-63
2024/02/17 08:27:27;;;;;;;24.93;23.93;;;21.10;63.00;;;;;;5054271;28;20440;-63
2024/02/17 08:29:54;;;;;;;24.50;23.50;;;21.10;63.10;;;;;;5056550;28;20559;-63
2024/02/17 08:32:21;;;;;;;25.17;24.17;;;21.10;63.00;;;;;;5060005;28;20476;-63
2024/02/17 08:34:48;;;;;;;24.90;23.90;;;21.10;63.00;;;;;;5053740;28;20498;-61
2024/02/17 08:37:15;;;;;;;25.80;24.80;;;21.10;63.10;;;;;;5054221;28;20432;-62
2024/02/17 08:39:42;;;;;;;25.80;24.80;;;21.10;63.00;;;;;;5053546;28;20515;-63
2024/02/17 08:42:11;;;;;;;27.00;25.90;;;21.10;63.10;;;;;;5045549;28;20479;-63
2024/02/17 08:44:38;;;;;;;25.50;24.50;;;21.10;63.20;;;;;;5053702;28;20456;-63
2024/02/17 08:47:05;;;;;;;26.60;25.30;;;21.10;63.20;;;;;;5045790;28;20803;-62
2024/02/17 08:49:32;;;;;;;24.93;24.00;;;21.10;63.30;;;;;;5055038;28;20476;-62
2024/02/17 08:51:59;;;;;;;25.03;24.03;;;21.10;63.30;;;;;;5054249;28;20432;-63
2024/02/17 08:54:26;;;;;;;26.00;25.00;;;21.10;63.40;;;;;;5053621;28;20506;-62
2024/02/17 08:56:54;;;;;;;25.70;24.70;;;21.20;63.50;;;;;;5053654;28;20802;-63
2024/02/17 08:59:22;;;;;;;26.30;25.10;;;21.10;63.50;;;;;;5053481;28;20910;-64
2024/02/17 09:01:49;;;;;;;24.20;23.30;;;21.10;63.50;;;;;;5055217;28;20915;-63
2024/02/17 09:04:16;;;;;;;25.50;24.50;;;21.20;63.60;;;;;;5053341;28;20494;-63
2024/02/17 09:06:43;;;;;;;26.07;25.07;;;21.10;63.60;;;;;;5053608;28;20475;-64
2024/02/17 09:09:09;;;;;;;25.03;24.03;;;21.10;63.50;;;;;;5053675;28;20476;-63
2024/02/17 09:11:36;;;;;;;25.27;24.17;;;21.10;63.50;;;;;;5044999;28;20929;-63
2024/02/17 09:14:03;;;;;;;25.00;24.00;;;21.10;63.70;;;;;;5053046;28;20484;-62
2024/02/17 09:16:32;;;;;;;25.10;24.10;;;21.10;64.40;;;;;;5053384;28;20849;-62
2024/02/17 09:18:58;;;;;;;25.40;24.40;;;21.10;63.80;;;;;;5053004;28;21026;-65
2024/02/17 09:21:25;;;;;;;25.80;24.80;;;21.10;64.00;;;;;;5057410;28;20472;-61
2024/02/17 09:23:52;;;;;;;25.73;24.73;;;21.20;65.00;;;;;;5052946;28;20492;-62
2024/02/17 09:26:20;;;;;;;24.63;23.70;;;21.10;65.00;;;;;;5053032;28;20479;-72
2024/02/17 09:28:48;;;;;;;25.57;24.37;;;21.10;65.30;;;;;;5052265;28;20437;-63
2024/02/17 09:31:21;;;;;;;26.10;24.90;;;21.20;66.10;;;;;;5045972;28;20494;-63
2024/02/17 09:33:50;;;;;;;25.60;24.40;;;21.20;66.60;;;;;;5052639;28;20569;-63
2024/02/17 09:36:25;;;;;;;25.87;24.73;;;21.10;67.30;;;;;;5052849;28;20475;-64
2024/02/17 09:38:52;;;;;;;25.10;24.20;;;21.20;67.30;;;;;;5057636;28;20475;-63
2024/02/17 09:41:20;;;;;;;25.93;24.93;;;21.20;67.20;;;;;;5047496;28;20468;-60
2024/02/17 09:43:50;;;;;;;25.83;24.50;;;21.30;67.70;;;;;;5049986;28;20491;-61
2024/02/17 09:46:18;;;;;;;24.90;23.90;;;21.30;67.70;;;;;;5052700;28;20471;-62
2024/02/17 09:48:45;;;;;;;26.70;25.60;;;21.30;67.80;;;;;;5058047;28;20463;-62
2024/02/17 09:51:14;;;;;;;26.53;25.53;;;21.40;67.90;;;;;;5052535;28;20464;-62
2024/02/17 09:53:41;;;;;;;25.70;24.30;;;21.50;67.90;;;;;;5052404;28;20498;-61
2024/02/17 09:56:08;;;;;;;25.07;24.07;;;21.50;67.70;;;;;;5044268;28;20878;-64
2024/02/17 09:58:36;;;;;;;25.20;24.00;;;21.50;67.70;;;;;;5045115;28;20580;-61
2024/02/17 10:01:03;;;;;;;25.50;24.40;;;21.50;67.70;;;;;;5051698;28;20810;-63
2024/02/17 10:03:32;;;;;;;25.00;24.00;;;21.60;67.60;;;;;;5052362;28;20464;-60
2024/02/17 10:06:11;;;;;;;24.80;23.80;;;21.60;67.50;;;;;;5052218;28;20590;-60
2024/02/17 10:08:40;;;;;;;25.23;23.93;;;21.70;67.50;;;;;;5044812;28;20444;-62
2024/02/17 10:11:10;;;;;;;25.07;24.07;;;21.70;67.30;;;;;;5044024;28;20977;-61
2024/02/17 10:13:38;;;;;;;25.70;24.60;;;21.70;67.10;;;;;;5052053;28;20475;-60
2024/02/17 10:16:08;;;;;;;25.23;24.23;;;21.70;67.10;;;;;;5051991;28;20467;-59
2024/02/17 10:18:39;;;;;;;24.77;23.77;;;21.80;67.20;;;;;;5055085;28;20538;-62
2024/02/17 10:21:06;;;;;;;25.70;24.70;;;21.80;67.00;;;;;;5052168;28;20444;-67
2024/02/17 10:23:35;;;;;;;24.67;23.67;;;21.80;66.90;;;;;;5052037;28;20479;-64
2024/02/17 10:26:25;;;;;;;25.63;24.53;;;21.80;67.20;;;;;;5051827;28;20939;-59
2024/02/17 10:29:00;;;;;;;24.60;23.60;;;21.90;67.00;;;;;;5036428;28;20494;-61
2024/02/17 10:31:28;;;;;;;25.37;24.37;;;21.90;66.70;;;;;;5049466;28;20497;-57
2024/02/17 10:33:58;;;;;;;26.93;25.60;;;21.90;66.50;;;;;;5068712;22;20979;-60
2024/02/17 10:36:27;;;;;;;25.70;24.70;;;22.00;66.50;;;;;;5048836;28;20481;-60
2024/02/17 10:38:55;;;;;;;24.90;23.90;;;22.00;66.40;;;;;;5051211;28;20480;-61
2024/02/17 10:41:25;;;;;;;24.97;23.97;;;22.00;66.20;;;;;;5051525;28;20440;-65
2024/02/17 10:43:52;;;;;;;25.27;24.17;;;22.00;66.40;;;;;;5051370;28;20924;-63
2024/02/17 10:46:25;;;;;;;26.77;25.70;;;22.10;66.40;;;;;;5043663;28;20471;-63
2024/02/17 10:48:59;;;;;;;26.30;25.20;;;22.10;66.30;;;;;;5042155;28;20460;-64
2024/02/17 10:51:27;;;;;;;26.30;25.20;;;22.10;66.20;;;;;;5039895;28;20468;-63
2024/02/17 10:53:59;;;;;;;27.17;25.90;;;22.20;67.10;;;;;;5040829;28;20481;-64
2024/02/17 10:56:28;;;;;;;27.83;26.53;;;22.10;66.40;;;;;;5046914;28;20475;-64
2024/02/17 10:58:56;;;;;;;26.20;25.10;;;22.20;66.40;;;;;;5041559;28;21054;-64
2024/02/17 11:01:27;;;;;;;25.87;24.77;;;22.20;66.50;;;;;;5039914;28;20448;-64
2024/02/17 11:03:54;;;;;;;24.80;23.40;;;22.20;66.70;;;;;;5040850;28;20473;-64
2024/02/17 11:06:22;;;;;;;26.30;25.30;;;22.30;66.90;;;;;;5043461;28;20442;-64
2024/02/17 11:08:49;;;;;;;25.50;24.50;;;22.30;66.90;;;;;;5042491;28;20468;-63
2024/02/17 11:11:23;;;;;;;26.60;25.20;;;22.30;66.90;;;;;;5039661;28;20473;-64
2024/02/17 11:13:52;;;;;;;26.50;25.40;;;22.30;66.90;;;;;;5040126;28;20441;-64
2024/02/17 11:16:19;;;;;;;27.93;26.83;;;22.30;66.80;;;;;;5043348;28;20877;-63
2024/02/17 11:18:51;;;;;;;28.50;27.40;;;22.30;66.70;;;;;;5042291;28;20476;-64
2024/02/17 11:21:25;;;;;;;27.73;26.63;;;22.40;66.80;;;;;;5043141;28;20459;-62
2024/02/17 11:23:52;;;;;;;27.10;26.00;;;22.40;66.80;;;;;;5041918;28;20440;-62
2024/02/17 11:26:21;;;;;;;27.27;25.97;;;22.40;67.00;;;;;;5039925;28;20453;-62
2024/02/17 11:28:49;;;;;;;28.40;27.10;;;22.40;66.40;;;;;;5046993;28;20440;-61
2024/02/17 11:31:18;;;;;;;26.90;25.70;;;22.40;66.10;;;;;;5039474;28;20873;-60
2024/02/17 11:33:48;;;;;;;26.33;25.23;;;22.40;66.00;;;;;;5047687;28;20440;-61
2024/02/17 11:36:16;;;;;;;26.77;25.47;;;22.40;66.10;;;;;;5029783;28;20445;-61
2024/02/17 11:38:43;;;;;;;27.70;26.40;;;22.50;66.20;;;;;;5042989;28;20948;-64
2024/02/17 11:41:15;;;;;;;29.10;27.60;;;22.50;66.30;;;;;;5042188;28;20471;-62
2024/02/17 11:43:42;;;;;;;27.90;26.60;;;22.50;66.60;;;;;;5042763;28;20444;-64
2024/02/17 11:46:11;;;;;;;28.53;27.13;;;22.50;66.70;;;;;;5039558;28;20500;-63
2024/02/17 11:48:39;;;;;;;27.63;26.53;;;22.50;66.70;;;;;;5039453;28;20880;-63
2024/02/17 11:51:21;;;;;;;28.33;27.13;;;22.50;66.90;;;;;;5043239;28;20469;-62
2024/02/17 11:53:49;;;;;;;26.87;25.70;;;22.50;66.80;;;;;;5045932;28;20923;-64
2024/02/17 11:56:17;;;;;;;27.00;25.80;;;22.60;67.20;;;;;;5043225;28;20445;-65
2024/02/17 11:58:45;;;;;;;29.17;28.10;;;22.50;66.80;;;;;;5043019;28;20503;-64
2024/02/17 12:01:13;;;;;;;29.37;28.23;;;22.60;66.60;;;;;;5042888;28;20472;-63
2024/02/17 12:03:44;;;;;;;28.83;27.73;;;22.60;66.60;;;;;;5043112;28;20451;-64
2024/02/17 12:06:11;;;;;;;28.70;27.50;;;22.50;66.40;;;;;;5046085;28;20463;-64
2024/02/17 12:08:40;;;;;;;29.07;27.70;;;22.60;66.40;;;;;;5046246;28;20444;-63
2024/02/17 12:11:07;;;;;;;28.70;27.70;;;22.60;66.40;;;;;;5045445;28;20440;-62
2024/02/17 12:13:34;;;;;;;29.90;28.60;;;22.60;66.40;;;;;;5046280;28;20869;-62
2024/02/17 12:16:05;;;;;;;27.60;26.43;;;22.60;66.30;;;;;;5044045;28;20495;-61
2024/02/17 12:18:33;;;;;;;28.50;27.40;;;22.60;66.30;;;;;;5042573;28;20437;-64
2024/02/17 12:21:05;;;;;;;28.17;27.17;;;22.60;66.30;;;;;;5044161;28;20484;-64
2024/02/17 12:23:34;;;;;;;29.50;28.30;;;22.60;66.30;;;;;;5045343;28;20932;-63
2024/02/17 12:26:01;;;;;;;27.70;26.60;;;22.60;66.30;;;;;;5045745;28;20499;-64
2024/02/17 12:28:29;;;;;;;26.63;25.70;;;22.60;66.40;;;;;;5045897;28;20468;-65
2024/02/17 12:30:58;;;;;;;28.00;27.00;;;22.60;66.40;;;;;;5044507;28;20468;-65
2024/02/17 12:33:26;;;;;;;28.13;27.13;;;22.60;66.40;;;;;;5042494;28;21011;-63